Time;durP1;ratioP1;P1;durP2;ratioP2;P2;SDS_P1;SDS_P2;PMS_P1;PMS_P2;Temp;Humidity;BMP_temperature;BMP_pressure;BME280_temperature;BME280_humidity;BME280_pressure;Samples;Min_cycle;Max_cycle;Signal;HPM_P1;HPM_P2
2023/01/28 00:00:19;;;;;;;6.88;6.18;;;;;;;2.06;90.85;102794.81;1035890;28;20824;-76
2023/01/28 00:00:51;;;;;;;7.88;7.07;;;;;;;2.07;90.80;102799.94;1036644;28;20293;-76
2023/01/28 00:01:22;;;;;;;8.40;6.80;;;;;;;2.09;90.72;102798.03;1031696;28;20305;-76
2023/01/28 00:01:54;;;;;;;8.25;7.30;;;;;;;2.09;91.02;102795.41;1032124;28;20560;-76
2023/01/28 00:02:26;;;;;;;7.03;6.32;;;;;;;2.06;90.81;102795.63;1032179;28;20300;-76
2023/01/28 00:02:57;;;;;;;7.95;6.45;;;;;;;2.06;90.41;102792.19;1032589;28;20348;-76
2023/01/28 00:03:29;;;;;;;19.17;7.82;;;;;;;2.06;90.72;102793.00;1032138;28;20300;-76
2023/01/28 00:04:01;;;;;;;6.97;6.32;;;;;;;2.07;90.14;102797.31;1031955;28;20297;-76
2023/01/28 00:04:33;;;;;;;7.72;6.93;;;;;;;2.07;90.40;102805.19;1027917;28;20938;-77
2023/01/28 00:05:05;;;;;;;7.72;7.03;;;;;;;2.09;90.38;102798.03;1024007;29;20307;-75
2023/01/28 00:05:36;;;;;;;7.95;7.22;;;;;;;2.09;90.29;102802.47;1026504;28;20378;-76
2023/01/28 00:06:13;;;;;;;7.15;6.47;;;;;;;2.10;90.44;102793.63;1028289;28;20290;-76
2023/01/28 00:06:45;;;;;;;7.55;6.80;;;;;;;2.10;90.17;102810.22;1021413;29;20669;-76
2023/01/28 00:07:18;;;;;;;7.95;6.90;;;;;;;2.10;89.25;102810.22;1021035;29;20315;-76
2023/01/28 00:07:49;;;;;;;7.72;6.93;;;;;;;2.10;89.31;102799.72;1024077;29;20310;-76
2023/01/28 00:08:21;;;;;;;6.57;5.97;;;;;;;2.12;88.83;102797.81;1025537;28;20299;-75
2023/01/28 00:08:54;;;;;;;6.82;6.22;;;;;;;2.11;88.58;102801.41;1032341;28;20316;-75
2023/01/28 00:09:26;;;;;;;7.35;6.65;;;;;;;2.13;88.08;102793.38;1036253;28;20311;-76
2023/01/28 00:09:57;;;;;;;7.95;7.15;;;;;;;2.12;88.20;102796.97;1036203;28;20292;-76
2023/01/28 00:10:29;;;;;;;7.22;6.53;;;;;;;2.12;88.82;102802.22;1032127;28;20294;-76
2023/01/28 00:11:02;;;;;;;7.88;7.18;;;;;;;2.10;88.79;102804.97;1031941;28;20305;-76
2023/01/28 00:11:34;;;;;;;6.80;6.20;;;;;;;2.05;89.36;102796.59;1031759;28;20304;-75
2023/01/28 00:12:06;;;;;;;6.65;6.07;;;;;;;2.01;89.08;102804.81;1029031;28;20305;-76
2023/01/28 00:12:37;;;;;;;7.80;6.63;;;;;;;2.02;88.61;102796.81;1027671;28;20298;-76
2023/01/28 00:13:12;;;;;;;7.38;6.68;;;;;;;1.98;88.82;102797.16;1023753;29;20660;-76
2023/01/28 00:13:44;;;;;;;8.00;7.20;;;;;;;1.98;88.66;102803.25;1024109;29;20299;-76
2023/01/28 00:14:16;;;;;;;7.20;6.50;;;;;;;1.96;88.47;102799.91;1020758;29;20686;-76
2023/01/28 00:14:48;;;;;;;7.57;6.88;;;;;;;1.91;88.41;102804.63;1020978;29;20298;-76
2023/01/28 00:15:19;;;;;;;8.10;6.95;;;;;;;1.93;88.50;102808.00;1023677;29;20310;-75
2023/01/28 00:15:56;;;;;;;7.40;6.70;;;;;;;1.98;88.93;102805.88;1020660;29;20797;-75
2023/01/28 00:16:29;;;;;;;7.38;6.70;;;;;;;1.96;88.55;102791.19;1025264;28;20298;-76
2023/01/28 00:17:00;;;;;;;7.45;6.75;;;;;;;1.92;88.41;102801.09;1026002;28;20310;-75
2023/01/28 00:17:32;;;;;;;8.05;6.97;;;;;;;2.00;88.06;102796.09;1029172;28;20302;-75
2023/01/28 00:18:04;;;;;;;7.95;6.95;;;;;;;2.00;88.23;102797.88;1028740;28;20720;-75
2023/01/28 00:18:36;;;;;;;9.18;7.18;;;;;;;1.97;87.98;102793.69;1031673;28;20305;-75
2023/01/28 00:19:08;;;;;;;7.82;7.03;;;;;;;1.99;87.80;102790.94;1023720;29;20317;-75
2023/01/28 00:19:40;;;;;;;7.78;6.97;;;;;;;1.99;87.53;102791.78;1024405;28;20307;-76
2023/01/28 00:20:12;;;;;;;6.38;5.47;;;;;;;2.00;87.69;102792.63;1023928;29;20317;-75
2023/01/28 00:20:43;;;;;;;7.30;6.60;;;;;;;2.01;88.11;102795.16;1020135;29;20845;-76
2023/01/28 00:21:15;;;;;;;7.38;6.68;;;;;;;2.00;88.76;102784.75;1020214;29;20778;-76
2023/01/28 00:21:46;;;;;;;7.07;6.38;;;;;;;2.00;88.32;102785.59;1020256;29;20671;-75
2023/01/28 00:22:18;;;;;;;7.05;6.30;;;;;;;2.03;88.53;102782.72;1024496;28;20302;-76
2023/01/28 00:22:49;;;;;;;7.28;6.68;;;;;;;2.03;88.19;102782.72;1024167;28;20362;-76
2023/01/28 00:23:22;;;;;;;7.35;6.65;;;;;;;2.04;88.26;102789.66;1024158;28;20860;-76
2023/01/28 00:23:55;;;;;;;7.10;6.40;;;;;;;2.03;88.49;102780.09;1029799;28;20341;-75
2023/01/28 00:24:26;;;;;;;7.50;6.75;;;;;;;2.03;88.59;102787.97;1024404;28;20302;-76
2023/01/28 00:24:58;;;;;;;7.32;6.63;;;;;;;2.05;88.94;102786.06;1016690;29;20984;-75
2023/01/28 00:25:30;;;;;;;7.60;6.75;;;;;;;2.03;89.38;102785.34;1016188;29;20307;-75
2023/01/28 00:26:04;;;;;;;8.60;7.28;;;;;;;2.02;89.70;102785.47;1014333;29;20386;-76
2023/01/28 00:26:36;;;;;;;7.03;6.38;;;;;;;2.03;89.95;102787.97;1016863;29;21032;-75
2023/01/28 00:27:08;;;;;;;7.75;7.05;;;;;;;2.01;89.76;102787.25;1016872;29;20308;-76
2023/01/28 00:27:39;;;;;;;7.15;6.45;;;;;;;1.98;90.01;102790.13;1020849;29;20646;-76
2023/01/28 00:28:11;;;;;;;8.43;7.43;;;;;;;2.00;89.92;102801.34;1020195;29;20689;-76
2023/01/28 00:28:43;;;;;;;7.18;6.47;;;;;;;1.99;89.71;102781.28;1023772;28;20290;-75
2023/01/28 00:29:15;;;;;;;6.55;5.95;;;;;;;1.99;89.32;102786.53;1024555;28;20976;-75
2023/01/28 00:29:47;;;;;;;7.28;6.57;;;;;;;1.98;89.75;102784.84;1028801;28;20704;-76
2023/01/28 00:30:19;;;;;;;7.05;6.35;;;;;;;2.00;89.85;102788.22;1031649;28;20316;-76
2023/01/28 00:30:51;;;;;;;6.50;5.93;;;;;;;1.99;89.72;102786.53;1028003;28;20325;-76
2023/01/28 00:31:25;;;;;;;8.20;7.50;;;;;;;2.01;90.06;102795.16;1028129;28;20337;-76
2023/01/28 00:31:58;;;;;;;7.57;6.88;;;;;;;2.01;89.58;102795.16;1019874;29;20694;-76
2023/01/28 00:32:33;;;;;;;6.68;6.07;;;;;;;2.04;89.98;102792.28;1016190;29;20319;-76
2023/01/28 00:33:04;;;;;;;7.75;6.97;;;;;;;2.06;89.48;102803.53;1014949;29;20308;-75
2023/01/28 00:33:36;;;;;;;6.50;5.95;;;;;;;2.07;89.63;102794.69;1017883;29;20358;-76
2023/01/28 00:34:08;;;;;;;7.60;6.90;;;;;;;2.07;89.93;102805.19;1020098;29;20723;-75
2023/01/28 00:34:39;;;;;;;7.53;6.82;;;;;;;2.07;89.94;102805.19;1019649;29;20370;-76
2023/01/28 00:35:11;;;;;;;7.68;6.90;;;;;;;2.08;90.35;102804.25;1019763;29;20841;-75
2023/01/28 00:35:45;;;;;;;7.30;6.60;;;;;;;2.06;90.19;102803.53;1021366;28;20302;-76
2023/01/28 00:36:18;;;;;;;7.45;6.53;;;;;;;2.03;90.55;102809.00;1022284;28;20829;-76
2023/01/28 00:36:56;;;;;;;7.22;6.60;;;;;;;2.04;90.66;102815.94;1024877;28;20313;-76
2023/01/28 00:37:28;;;;;;;6.75;6.15;;;;;;;1.99;90.00;102812.81;1027776;28;20799;-75
2023/01/28 00:38:03;;;;;;;7.60;6.90;;;;;;;2.00;90.12;102819.75;1025789;28;20321;-76
2023/01/28 00:38:34;;;;;;;6.63;6.03;;;;;;;2.00;90.14;102814.50;1029776;28;20377;-76
2023/01/28 00:39:06;;;;;;;6.25;5.70;;;;;;;2.02;90.17;102809.13;1027723;28;20306;-75
2023/01/28 00:39:38;;;;;;;6.85;6.15;;;;;;;2.00;90.39;102819.75;1028940;28;20301;-75
2023/01/28 00:40:11;;;;;;;6.40;5.80;;;;;;;2.01;90.82;102821.44;1027643;28;20658;-76
2023/01/28 00:40:43;;;;;;;7.95;6.47;;;;;;;2.01;90.30;102820.59;1028397;28;20361;-76
2023/01/28 00:41:16;;;;;;;6.80;6.13;;;;;;;2.00;90.51;102822.38;1023462;29;20666;-76
2023/01/28 00:41:48;;;;;;;7.10;6.50;;;;;;;1.98;90.16;102813.78;1019268;29;20304;-76
2023/01/28 00:42:20;;;;;;;9.30;6.90;;;;;;;2.00;89.94;102818.91;1019758;29;20721;-75
2023/01/28 00:42:52;;;;;;;7.72;6.93;;;;;;;2.00;90.06;102819.75;1020616;29;20304;-76
2023/01/28 00:43:24;;;;;;;7.05;6.40;;;;;;;1.98;90.93;102816.41;1024051;28;20303;-76
2023/01/28 00:43:56;;;;;;;6.90;6.25;;;;;;;1.98;90.13;102821.66;1028080;28;20765;-76
2023/01/28 00:44:27;;;;;;;7.32;6.72;;;;;;;2.01;90.63;102823.22;1028641;28;20654;-76
2023/01/28 00:44:59;;;;;;;7.25;6.60;;;;;;;2.01;90.39;102821.44;1027831;28;20358;-76
2023/01/28 00:45:30;;;;;;;7.55;6.85;;;;;;;2.01;90.21;102815.34;1028352;28;20317;-75
2023/01/28 00:46:03;;;;;;;7.30;6.60;;;;;;;2.01;90.45;102810.91;1031586;28;22289;-75
2023/01/28 00:46:35;;;;;;;6.72;6.13;;;;;;;2.01;90.81;102821.44;1024564;28;20487;-76
2023/01/28 00:47:07;;;;;;;8.10;7.30;;;;;;;1.99;91.29;102827.75;1028043;28;20672;-76
2023/01/28 00:47:39;;;;;;;8.05;7.25;;;;;;;1.97;91.54;102819.97;1027939;28;20297;-76
2023/01/28 00:48:10;;;;;;;7.22;6.53;;;;;;;1.97;91.14;102822.59;1025175;28;20306;-76
2023/01/28 00:48:43;;;;;;;7.55;6.85;;;;;;;1.97;91.40;102821.75;1027385;28;20326;-76
2023/01/28 00:49:16;;;;;;;8.45;7.43;;;;;;;1.95;91.05;102814.00;1027883;28;20389;-75
2023/01/28 00:49:47;;;;;;;7.28;6.00;;;;;;;1.96;91.27;102826.19;1023918;28;20855;-75
2023/01/28 00:50:20;;;;;;;8.30;7.50;;;;;;;1.95;91.33;102816.63;1020280;29;20303;-75
2023/01/28 00:50:51;;;;;;;7.82;7.03;;;;;;;1.96;91.53;102815.66;1024159;29;20295;-75
2023/01/28 00:51:26;;;;;;;8.25;6.97;;;;;;;1.92;91.46;102822.09;1024362;28;20361;-76
2023/01/28 00:51:58;;;;;;;7.80;7.10;;;;;;;1.91;91.99;102823.03;1028575;28;20313;-76
2023/01/28 00:52:30;;;;;;;8.60;6.45;;;;;;;1.92;92.08;102821.22;1033176;28;20297;-76
2023/01/28 00:53:02;;;;;;;8.40;7.60;;;;;;;1.93;92.01;102823.78;1031451;28;20305;-76
2023/01/28 00:53:35;;;;;;;7.80;7.00;;;;;;;1.92;92.09;102826.50;1023931;29;20298;-75
2023/01/28 00:54:06;;;;;;;7.63;6.93;;;;;;;1.90;92.15;102818.72;1015721;29;20318;-76
2023/01/28 00:54:40;;;;;;;8.52;7.70;;;;;;;1.90;92.13;102823.13;1015767;29;20304;-75
2023/01/28 00:55:12;;;;;;;8.02;7.22;;;;;;;1.90;91.98;102821.34;1016050;29;20307;-75
2023/01/28 00:55:45;;;;;;;7.47;6.78;;;;;;;1.93;92.16;102826.41;1016936;29;20303;-76
2023/01/28 00:56:17;;;;;;;7.82;7.03;;;;;;;1.93;92.46;102822.94;1025183;28;20326;-76
2023/01/28 00:56:48;;;;;;;8.00;7.25;;;;;;;1.92;92.21;102826.50;1027918;28;20294;-76
2023/01/28 00:57:20;;;;;;;8.32;7.53;;;;;;;1.94;92.34;102828.09;1019572;29;20307;-75
2023/01/28 00:57:51;;;;;;;7.93;7.13;;;;;;;1.95;91.99;102821.03;1020526;29;20374;-75
2023/01/28 00:58:25;;;;;;;16.27;7.43;;;;;;;1.96;92.04;102817.47;1020576;29;20694;-76
2023/01/28 00:58:57;;;;;;;7.03;6.43;;;;;;;1.95;92.25;102821.03;1020560;29;20884;-75
2023/01/28 00:59:28;;;;;;;7.20;6.50;;;;;;;1.95;91.98;102827.13;1023784;28;20306;-76
2023/01/28 01:00:00;;;;;;;8.02;7.30;;;;;;;1.97;92.09;102821.75;1024270;28;20361;-76
2023/01/28 01:00:32;;;;;;;7.63;6.93;;;;;;;1.98;92.38;102821.66;1024597;28;20290;-75
2023/01/28 01:01:11;;;;;;;7.82;7.03;;;;;;;1.97;92.75;102827.03;1024278;28;20351;-76
2023/01/28 01:01:43;;;;;;;7.18;6.47;;;;;;;1.97;92.55;102827.03;1023607;29;20310;-76
2023/01/28 01:02:14;;;;;;;6.95;6.30;;;;;;;1.95;92.38;102821.88;1021492;29;20306;-75
2023/01/28 01:02:49;;;;;;;7.93;7.22;;;;;;;1.94;92.60;102827.25;1019627;29;20406;-76
2023/01/28 01:03:20;;;;;;;7.15;6.50;;;;;;;1.95;92.38;102824.50;1018460;29;20454;-76
2023/01/28 01:04:01;;;;;;;9.18;6.97;;;;;;;1.97;92.73;102827.03;1021697;28;20296;-75
2023/01/28 01:04:34;;;;;;;7.30;6.70;;;;;;;1.96;92.24;102826.19;1029207;28;20425;-76
2023/01/28 01:05:07;;;;;;;8.07;7.22;;;;;;;1.95;91.80;102821.88;1027948;28;20346;-76
2023/01/28 01:05:39;;;;;;;10.68;7.07;;;;;;;1.97;91.69;102821.75;1023600;29;20306;-76
2023/01/28 01:06:13;;;;;;;8.63;7.70;;;;;;;1.99;92.03;102828.59;1023702;28;20309;-76
2023/01/28 01:06:45;;;;;;;7.47;6.47;;;;;;;1.97;91.59;102819.97;1020813;29;20635;-76
2023/01/28 01:07:16;;;;;;;8.25;7.10;;;;;;;1.97;92.01;102822.59;1024385;28;20314;-76
2023/01/28 01:07:50;;;;;;;9.13;7.15;;;;;;;1.99;91.94;102828.59;1027733;28;20306;-75
2023/01/28 01:08:33;;;;;;;8.00;7.20;;;;;;;1.99;92.27;102823.31;1029406;28;20313;-76
2023/01/28 01:09:10;;;;;;;7.82;6.90;;;;;;;2.00;91.99;102825.00;1035755;28;20600;-76
2023/01/28 01:09:41;;;;;;;6.80;6.18;;;;;;;2.00;92.28;102825.00;1031637;28;20308;-76
2023/01/28 01:10:15;;;;;;;6.88;6.15;;;;;;;2.00;92.41;102822.38;1031419;28;20289;-76
2023/01/28 01:10:47;;;;;;;6.57;5.93;;;;;;;1.99;91.96;102823.31;1025779;28;20291;-76
2023/01/28 01:11:18;;;;;;;7.20;6.60;;;;;;;1.98;91.97;102823.44;1028433;28;20309;-76
2023/01/28 01:11:50;;;;;;;7.50;6.80;;;;;;;1.96;91.71;102822.72;1023553;29;21207;-75
2023/01/28 01:12:22;;;;;;;8.55;7.68;;;;;;;1.94;91.89;102817.56;1024009;29;20317;-75
2023/01/28 01:12:55;;;;;;;7.60;6.90;;;;;;;1.92;91.27;102821.22;1016077;29;20356;-76
2023/01/28 01:13:26;;;;;;;7.63;6.93;;;;;;;1.93;91.59;102821.16;1016988;29;20374;-76
2023/01/28 01:13:59;;;;;;;7.65;6.95;;;;;;;1.93;91.30;102818.53;1023984;29;20298;-76
2023/01/28 01:14:30;;;;;;;6.78;6.18;;;;;;;1.92;91.22;102819.47;1024701;28;20688;-76
2023/01/28 01:15:03;;;;;;;7.32;6.63;;;;;;;1.92;91.35;102818.59;1024289;28;20338;-76
2023/01/28 01:15:35;;;;;;;7.95;7.15;;;;;;;1.93;91.33;102822.94;1027008;28;20449;-75
2023/01/28 01:16:09;;;;;;;7.72;7.03;;;;;;;1.92;91.81;102821.22;1023755;29;20302;-75
2023/01/28 01:16:41;;;;;;;7.38;6.63;;;;;;;1.91;91.46;102809.88;1022085;28;20454;-76
2023/01/28 01:17:12;;;;;;;8.20;7.40;;;;;;;1.91;91.62;102820.41;1023559;29;20662;-76
2023/01/28 01:17:48;;;;;;;8.20;6.93;;;;;;;1.90;91.65;102823.97;1020389;29;20682;-74
2023/01/28 01:18:19;;;;;;;7.43;6.60;;;;;;;1.89;91.64;102824.09;1019550;29;20303;-75
2023/01/28 01:18:52;;;;;;;9.05;7.80;;;;;;;1.87;91.39;102821.56;1023710;29;20324;-75
2023/01/28 01:19:25;;;;;;;8.25;7.50;;;;;;;1.86;91.80;102826.00;1019702;29;20299;-76
2023/01/28 01:19:57;;;;;;;9.35;6.85;;;;;;;1.89;91.76;102830.19;1019986;29;20907;-76
2023/01/28 01:20:32;;;;;;;7.85;7.15;;;;;;;1.90;92.27;102823.13;1021588;28;20386;-76
2023/01/28 01:21:10;;;;;;;7.70;6.82;;;;;;;1.90;92.41;102828.38;1021079;29;20304;-75
2023/01/28 01:21:42;;;;;;;7.45;6.70;;;;;;;1.91;92.17;102828.28;1019954;29;20346;-75
2023/01/28 01:22:16;;;;;;;8.75;7.95;;;;;;;1.90;92.11;102833.66;1018211;29;20304;-75
2023/01/28 01:22:48;;;;;;;9.32;7.75;;;;;;;1.90;92.04;102833.66;1022938;28;20304;-75
2023/01/28 01:23:20;;;;;;;7.80;6.85;;;;;;;1.91;92.13;102830.06;1028687;28;20309;-76
2023/01/28 01:23:52;;;;;;;8.40;7.60;;;;;;;1.90;92.33;102823.13;1027824;28;20346;-76
2023/01/28 01:24:28;;;;;;;8.20;7.40;;;;;;;1.91;92.69;102836.16;1028290;28;20707;-76
2023/01/28 01:25:00;;;;;;;8.82;7.93;;;;;;;1.90;92.20;102826.59;1031811;28;20309;-76
2023/01/28 01:25:31;;;;;;;8.80;7.75;;;;;;;1.92;92.30;102831.75;1023161;29;20315;-75
2023/01/28 01:26:04;;;;;;;7.80;7.05;;;;;;;1.89;92.01;102822.28;1019871;29;20300;-76
2023/01/28 01:26:39;;;;;;;8.85;7.88;;;;;;;1.90;92.20;102833.66;1012797;29;20300;-76
2023/01/28 01:27:10;;;;;;;7.93;7.13;;;;;;;1.90;92.43;102833.66;1016384;29;20817;-76
2023/01/28 01:27:43;;;;;;;7.65;6.82;;;;;;;1.90;92.48;102836.28;1020850;29;20306;-76
2023/01/28 01:28:15;;;;;;;7.53;6.82;;;;;;;1.92;92.36;102837.00;1013238;29;20320;-76
2023/01/28 01:28:47;;;;;;;8.40;7.60;;;;;;;1.93;92.29;102839.53;1020404;29;21028;-76
2023/01/28 01:29:18;;;;;;;9.13;8.27;;;;;;;1.92;92.42;102837.00;1023623;29;20326;-75
2023/01/28 01:29:55;;;;;;;7.75;7.05;;;;;;;1.92;92.75;102834.38;1023013;29;20426;-75
2023/01/28 01:30:27;;;;;;;8.15;7.45;;;;;;;1.92;92.63;102834.38;1017838;29;20322;-75
2023/01/28 01:31:00;;;;;;;8.13;7.32;;;;;;;1.90;92.38;102831.84;1023555;29;20342;-76
2023/01/28 01:31:32;;;;;;;7.47;6.78;;;;;;;1.86;92.21;102828.63;1021089;29;20366;-76
2023/01/28 01:32:04;;;;;;;8.20;7.50;;;;;;;1.87;92.38;102829.44;1025168;28;20758;-76
2023/01/28 01:32:36;;;;;;;7.43;6.72;;;;;;;1.88;92.36;102822.41;1031281;28;20382;-76
2023/01/28 01:33:07;;;;;;;9.20;7.50;;;;;;;1.87;92.54;102832.09;1026562;28;20314;-75
2023/01/28 01:33:40;;;;;;;7.90;7.10;;;;;;;1.89;92.11;102821.47;1027358;28;20895;-76
2023/01/28 01:34:12;;;;;;;7.20;6.28;;;;;;;1.89;92.56;102832.81;1022394;29;20345;-76
2023/01/28 01:34:44;;;;;;;7.35;6.65;;;;;;;1.84;92.84;102829.69;1019816;29;20291;-76
2023/01/28 01:35:16;;;;;;;7.65;6.72;;;;;;;1.84;93.09;102833.16;1020663;29;20785;-76
2023/01/28 01:35:56;;;;;;;8.38;7.50;;;;;;;1.83;92.97;102828.84;1024975;28;20309;-76
2023/01/28 01:36:30;;;;;;;6.93;6.22;;;;;;;1.88;92.98;102828.50;1025754;28;20373;-76
2023/01/28 01:37:02;;;;;;;7.30;6.57;;;;;;;1.88;92.19;102825.88;1027602;28;20043;-76
2023/01/28 01:37:35;;;;;;;6.80;6.20;;;;;;;1.88;92.27;102831.13;1019589;29;20367;-75
2023/01/28 01:38:07;;;;;;;7.93;7.13;;;;;;;1.88;91.61;102825.88;1021943;28;20307;-76
2023/01/28 01:38:39;;;;;;;7.28;6.57;;;;;;;1.86;92.06;102828.63;1027386;28;20310;-76
2023/01/28 01:39:12;;;;;;;8.32;7.53;;;;;;;1.83;91.66;102822.75;1020711;29;20669;-76
2023/01/28 01:39:44;;;;;;;7.97;7.18;;;;;;;1.83;91.61;102825.38;1023662;29;20315;-75
2023/01/28 01:40:16;;;;;;;9.35;7.57;;;;;;;1.80;91.74;102833.47;1020243;29;20299;-76
2023/01/28 01:40:50;;;;;;;7.80;7.10;;;;;;;1.80;91.63;102829.06;1017103;29;20308;-75
2023/01/28 01:41:30;;;;;;;9.80;6.45;;;;;;;1.78;92.01;102830.13;1022675;29;20306;-76
2023/01/28 01:42:02;;;;;;;7.68;6.88;;;;;;;1.79;92.34;102826.53;1021504;29;20299;-75
2023/01/28 01:42:34;;;;;;;7.28;6.47;;;;;;;1.71;92.33;102828.88;1023741;28;20804;-76
2023/01/28 01:43:19;;;;;;;8.00;7.20;;;;;;;1.67;92.21;102823.03;1023465;29;20307;-76
2023/01/28 01:43:53;;;;;;;8.07;6.18;;;;;;;1.62;91.47;102819.03;1021995;29;20307;-75
2023/01/28 01:44:48;;;;;;;7.53;6.75;;;;;;;1.61;91.89;102823.44;1019061;29;20303;-75
2023/01/28 01:45:19;;;;;;;7.95;6.70;;;;;;;1.62;91.76;102821.66;1023633;29;20398;-76
2023/01/28 01:45:58;;;;;;;6.82;6.22;;;;;;;1.64;91.27;102823.22;1027278;28;20692;-76
2023/01/28 01:46:34;;;;;;;7.03;6.32;;;;;;;1.66;91.64;102825.75;1027923;28;20298;-76
2023/01/28 01:47:07;;;;;;;7.03;6.32;;;;;;;1.66;91.40;102823.13;1023363;29;20307;-75
2023/01/28 01:47:51;;;;;;;7.65;6.90;;;;;;;1.65;91.61;102824.91;1019662;29;20307;-76
2023/01/28 01:48:27;;;;;;;7.43;6.57;;;;;;;1.66;91.54;102825.75;1022436;29;20320;-75
2023/01/28 01:49:28;;;;;;;7.35;6.63;;;;;;;1.61;91.26;102827.84;1023759;29;20307;-76
2023/01/28 01:50:04;;;;;;;7.55;6.80;;;;;;;1.60;91.41;102827.00;1015864;28;20321;-76
2023/01/28 01:50:50;;;;;;;7.93;6.75;;;;;;;1.62;91.74;102832.16;1024378;28;20306;-76
2023/01/28 01:51:29;;;;;;;8.07;7.20;;;;;;;1.59;91.82;102824.50;1019667;29;20663;-75
2023/01/28 01:52:07;;;;;;;7.20;6.47;;;;;;;1.61;91.34;102827.84;1020013;29;20386;-76
2023/01/28 01:52:40;;;;;;;9.32;6.97;;;;;;;1.60;91.73;102828.78;1023330;29;20306;-76
2023/01/28 01:53:19;;;;;;;9.20;7.20;;;;;;;1.62;91.54;102829.53;1022903;29;20705;-74
2023/01/28 01:53:52;;;;;;;8.35;7.55;;;;;;;1.62;91.73;102830.38;1023614;29;20298;-76
2023/01/28 01:54:25;;;;;;;7.82;6.95;;;;;;;1.64;91.66;102832.88;1019250;29;20043;-75
2023/01/28 01:54:59;;;;;;;10.10;7.85;;;;;;;1.63;91.50;102831.19;1021472;29;20371;-75
2023/01/28 01:55:34;;;;;;;8.57;7.65;;;;;;;1.59;91.20;102824.50;1018084;29;20304;-75
2023/01/28 01:56:11;;;;;;;7.40;6.70;;;;;;;1.60;91.42;102828.78;1021365;29;20398;-76
2023/01/28 01:56:46;;;;;;;7.03;6.32;;;;;;;1.62;91.69;102824.28;1015971;29;20312;-75
2023/01/28 01:57:22;;;;;;;7.40;6.70;;;;;;;1.60;92.05;102832.25;1019347;28;20380;-76
2023/01/28 01:57:55;;;;;;;7.65;6.82;;;;;;;1.61;91.96;102827.84;1019688;29;20661;-76
2023/01/28 01:58:30;;;;;;;8.45;7.10;;;;;;;1.61;91.59;102825.22;1018897;29;20307;-76
2023/01/28 01:59:02;;;;;;;6.40;5.80;;;;;;;1.62;92.08;102834.78;1019402;29;20308;-76
2023/01/28 01:59:35;;;;;;;7.63;6.93;;;;;;;1.63;92.09;102831.19;1020825;29;20661;-76
2023/01/28 02:00:08;;;;;;;8.13;7.32;;;;;;;1.62;91.99;102833.00;1020501;29;20922;-76
2023/01/28 02:00:45;;;;;;;7.18;6.47;;;;;;;1.60;91.55;102826.16;1019852;29;20318;-76
2023/01/28 02:01:20;;;;;;;7.57;6.93;;;;;;;1.59;91.71;102824.50;1019443;29;20322;-75
2023/01/28 02:01:52;;;;;;;8.88;7.72;;;;;;;1.61;91.78;102833.09;1018970;29;20307;-76
2023/01/28 02:02:24;;;;;;;8.45;7.15;;;;;;;1.57;92.10;102831.66;1022479;28;20314;-76
2023/01/28 02:02:57;;;;;;;7.75;7.03;;;;;;;1.55;91.52;102829.13;1027544;28;20304;-76
2023/01/28 02:04:05;;;;;;;8.20;6.78;;;;;;;1.60;91.80;102826.16;1024459;28;20313;-76
2023/01/28 02:04:43;;;;;;;8.05;7.05;;;;;;;1.60;91.75;102831.44;1011320;29;20297;-76
2023/01/28 02:05:21;;;;;;;7.43;6.65;;;;;;;1.60;91.89;102837.50;1006070;29;20313;-76
2023/01/28 02:05:53;;;;;;;8.50;6.93;;;;;;;1.58;91.73;102828.06;1018855;29;20311;-76
2023/01/28 02:06:26;;;;;;;6.75;6.15;;;;;;;1.59;91.62;102832.38;1023518;29;20386;-76
2023/01/28 02:06:59;;;;;;;8.40;7.18;;;;;;;1.57;91.52;102827.22;1022705;29;20681;-76
2023/01/28 02:07:31;;;;;;;9.32;7.43;;;;;;;1.55;91.92;102829.97;1024299;28;20516;-76
2023/01/28 02:08:21;;;;;;;9.65;7.53;;;;;;;1.55;91.38;102829.97;1022860;29;20728;-75
2023/01/28 02:08:54;;;;;;;9.18;7.40;;;;;;;1.57;91.86;102827.22;1023631;29;20303;-75
2023/01/28 02:09:33;;;;;;;7.93;6.97;;;;;;;1.58;91.72;102828.06;1016591;29;20088;-75
2023/01/28 02:10:06;;;;;;;9.15;6.97;;;;;;;1.55;91.95;102829.97;1021461;29;20800;-76
2023/01/28 02:10:38;;;;;;;6.75;6.15;;;;;;;1.53;91.43;102831.03;1015578;29;20304;-76
2023/01/28 02:11:10;;;;;;;8.57;7.35;;;;;;;1.51;91.39;102828.50;1019647;29;20314;-76
2023/01/28 02:11:43;;;;;;;8.05;7.25;;;;;;;1.52;91.05;102829.34;1020140;29;20463;-75
2023/01/28 02:12:19;;;;;;;7.82;6.85;;;;;;;1.51;90.68;102827.66;1019558;29;20414;-76
2023/01/28 02:12:55;;;;;;;8.43;7.53;;;;;;;1.51;90.81;102823.25;1019637;29;20303;-76
2023/01/28 02:13:40;;;;;;;7.72;6.95;;;;;;;1.52;90.83;102826.72;1019339;29;20745;-76
2023/01/28 02:14:12;;;;;;;7.78;6.78;;;;;;;1.51;90.89;102825.88;1018709;29;20316;-75
2023/01/28 02:15:09;;;;;;;10.23;7.25;;;;;;;1.48;90.33;102833.97;1019455;29;20295;-76
2023/01/28 02:15:41;;;;;;;7.57;6.80;;;;;;;1.50;90.30;102826.00;1019589;29;20295;-76
2023/01/28 02:16:13;;;;;;;9.18;7.15;;;;;;;1.51;90.96;102836.38;1020643;29;20044;-75
2023/01/28 02:16:44;;;;;;;7.53;6.78;;;;;;;1.49;90.02;102830.41;1023309;29;20307;-76
2023/01/28 02:17:16;;;;;;;7.85;7.10;;;;;;;1.50;90.51;102834.72;1023630;29;20307;-75
2023/01/28 02:17:49;;;;;;;8.55;7.65;;;;;;;1.48;90.35;102830.50;1021181;28;20883;-75
2023/01/28 02:18:21;;;;;;;7.75;7.05;;;;;;;1.46;89.88;102830.63;1019965;29;20307;-76
2023/01/28 02:18:52;;;;;;;8.00;7.20;;;;;;;1.46;90.00;102837.66;1019874;29;20338;-75
2023/01/28 02:19:28;;;;;;;8.32;7.53;;;;;;;1.46;90.40;102825.38;1019607;29;20303;-75
2023/01/28 02:20:04;;;;;;;7.90;7.13;;;;;;;1.48;90.21;102839.22;1023633;29;20295;-75
2023/01/28 02:20:45;;;;;;;8.80;7.70;;;;;;;1.49;90.79;102835.66;1024568;28;20302;-75
2023/01/28 02:21:25;;;;;;;8.20;6.90;;;;;;;1.50;90.92;102833.88;1023633;29;20836;-76
2023/01/28 02:22:53;;;;;;;8.52;7.03;;;;;;;1.51;90.18;102838.19;1025279;28;20138;-76
2023/01/28 02:23:37;;;;;;;6.30;5.70;;;;;;;1.49;90.53;102842.69;1019333;29;20310;-76
2023/01/28 02:24:31;;;;;;;7.35;6.13;;;;;;;1.51;90.00;102839.00;1007483;29;20335;-75
2023/01/28 02:25:30;;;;;;;7.90;6.28;;;;;;;1.50;89.80;102847.84;1007694;29;20297;-76
2023/01/28 02:26:36;;;;;;;6.88;5.82;;;;;;;1.51;89.02;102848.69;1016073;29;20304;-76
2023/01/28 02:27:26;;;;;;;6.38;5.38;;;;;;;1.51;89.26;102848.69;1011563;29;20312;-76
2023/01/28 02:28:22;;;;;;;9.43;6.22;;;;;;;1.53;88.67;102847.63;1007055;29;20319;-75
2023/01/28 02:29:02;;;;;;;7.07;5.82;;;;;;;1.55;89.20;102845.72;1010268;29;20388;-76
2023/01/28 02:29:43;;;;;;;6.20;4.55;;;;;;;1.51;88.54;102844.25;1024214;28;20815;-76
2023/01/28 02:30:20;;;;;;;5.95;4.93;;;;;;;1.52;89.05;102845.94;1023599;29;20134;-76
2023/01/28 02:31:17;;;;;;;7.88;6.57;;;;;;;1.57;88.95;102842.16;1026862;28;20126;-76
2023/01/28 02:31:56;;;;;;;4.82;4.32;;;;;;;1.55;89.12;102837.00;1027161;28;20306;-76
2023/01/28 02:32:40;;;;;;;7.20;5.05;;;;;;;1.57;88.85;102843.00;1030146;28;20297;-76
2023/01/28 02:33:18;;;;;;;9.93;5.68;;;;;;;1.53;88.60;102834.50;1031177;28;20755;-76
2023/01/28 02:34:14;;;;;;;6.22;5.53;;;;;;;1.60;88.69;102834.06;1031296;28;20822;-76
2023/01/28 02:34:50;;;;;;;7.07;5.40;;;;;;;1.57;88.56;102832.47;1023189;29;20307;-76
2023/01/28 02:35:41;;;;;;;5.38;4.25;;;;;;;1.61;88.57;102839.19;1019583;29;20303;-76
2023/01/28 02:36:33;;;;;;;6.10;4.93;;;;;;;1.62;88.57;102834.78;1015350;29;20311;-76
2023/01/28 02:37:13;;;;;;;6.57;4.90;;;;;;;1.59;88.23;102829.75;1021360;29;20885;-76
2023/01/28 02:38:03;;;;;;;7.63;5.60;;;;;;;1.63;88.20;102836.47;1015497;29;20877;-76
2023/01/28 02:38:41;;;;;;;6.40;5.47;;;;;;;1.62;87.88;102838.25;1019627;29;20314;-76
2023/01/28 02:39:22;;;;;;;9.07;6.90;;;;;;;1.65;87.12;102834.59;1023228;29;20303;-76
2023/01/28 02:40:00;;;;;;;9.65;6.57;;;;;;;1.63;87.39;102836.47;1027661;28;20381;-76
2023/01/28 02:41:00;;;;;;;11.10;7.15;;;;;;;1.64;87.35;102832.88;1016825;29;20320;-76
2023/01/28 02:41:31;;;;;;;8.55;6.38;;;;;;;1.62;86.52;102837.41;1023545;28;20357;-76
2023/01/28 02:42:05;;;;;;;8.50;7.05;;;;;;;1.64;86.55;102832.88;1019336;29;20355;-76
2023/01/28 02:42:38;;;;;;;8.30;6.50;;;;;;;1.64;86.58;102827.63;1019553;29;20483;-75
2023/01/28 02:43:10;;;;;;;9.55;5.95;;;;;;;1.59;86.10;102835.00;1019294;29;20315;-75
2023/01/28 02:43:43;;;;;;;8.32;6.35;;;;;;;1.62;86.41;102829.53;1019607;29;20797;-76
2023/01/28 02:44:15;;;;;;;8.18;5.72;;;;;;;1.65;86.74;102834.59;1020495;29;20411;-76
2023/01/28 02:44:47;;;;;;;5.95;5.22;;;;;;;1.67;86.98;102840.56;1027472;28;20298;-76